sensor_id;sensor_type;location;lat;lon;timestamp;temperature;humidity
38910;DHT22;24676;51.360;12.354;2022-09-09T04:03:20;13.10;99.90
38910;DHT22;24676;51.360;12.354;2022-09-09T04:06:05;13.10;99.90
38910;DHT22;24676;51.360;12.354;2022-09-09T04:08:51;13.10;99.90
38910;DHT22;24676;51.360;12.354;2022-09-09T04:11:36;13.10;99.90
38910;DHT22;24676;51.360;12.354;2022-09-09T04:14:21;13.10;99.90
38910;DHT22;24676;51.360;12.354;2022-09-09T04:17:06;13.10;99.90
38910;DHT22;24676;51.360;12.354;2022-09-09T04:19:50;13.00;99.90
38910;DHT22;24676;51.360;12.354;2022-09-09T04:22:34;13.10;99.90
38910;DHT22;24676;51.360;12.354;2022-09-09T04:25:18;13.10;99.90
38910;DHT22;24676;51.360;12.354;2022-09-09T04:28:03;13.10;99.90
38910;DHT22;24676;51.360;12.354;2022-09-09T04:30:47;13.10;99.90
38910;DHT22;24676;51.360;12.354;2022-09-09T04:33:31;13.10;99.90
38910;DHT22;24676;51.360;12.354;2022-09-09T04:36:16;13.20;99.90
38910;DHT22;24676;51.360;12.354;2022-09-09T04:39:00;13.20;99.90
38910;DHT22;24676;51.360;12.354;2022-09-09T04:41:45;13.30;99.90
38910;DHT22;24676;51.360;12.354;2022-09-09T04:44:29;13.40;99.90
38910;DHT22;24676;51.360;12.354;2022-09-09T04:47:14;13.40;99.90
38910;DHT22;24676;51.360;12.354;2022-09-09T04:49:58;13.50;99.90
38910;DHT22;24676;51.360;12.354;2022-09-09T04:52:43;13.50;99.90
38910;DHT22;24676;51.360;12.354;2022-09-09T04:55:27;13.60;99.90
38910;DHT22;24676;51.360;12.354;2022-09-09T04:58:11;13.60;99.90
38910;DHT22;24676;51.360;12.354;2022-09-09T05:01:02;13.70;99.90
38910;DHT22;24676;51.360;12.354;2022-09-09T05:03:46;13.70;99.90
38910;DHT22;24676;51.360;12.354;2022-09-09T05:06:31;13.80;99.90
38910;DHT22;24676;51.360;12.354;2022-09-09T05:09:15;13.90;99.90
38910;DHT22;24676;51.360;12.354;2022-09-09T05:11:59;13.90;99.90
38910;DHT22;24676;51.360;12.354;2022-09-09T05:14:44;14.10;99.90
38910;DHT22;24676;51.360;12.354;2022-09-09T05:17:28;14.20;99.90
38910;DHT22;24676;51.360;12.354;2022-09-09T05:20:12;14.30;99.90
38910;DHT22;24676;51.360;12.354;2022-09-09T05:22:56;14.50;99.90
38910;DHT22;24676;51.360;12.354;2022-09-09T05:25:41;14.60;99.90
38910;DHT22;24676;51.360;12.354;2022-09-09T05:28:26;14.60;99.90
38910;DHT22;24676;51.360;12.354;2022-09-09T05:31:14;14.70;99.90
38910;DHT22;24676;51.360;12.354;2022-09-09T05:33:59;14.80;99.90
38910;DHT22;24676;51.360;12.354;2022-09-09T05:36:43;15.00;99.90
38910;DHT22;24676;51.360;12.354;2022-09-09T05:39:27;15.10;99.90
38910;DHT22;24676;51.360;12.354;2022-09-09T05:42:11;15.20;99.90
38910;DHT22;24676;51.360;12.354;2022-09-09T05:44:55;15.30;99.90
38910;DHT22;24676;51.360;12.354;2022-09-09T05:47:40;15.40;99.90
38910;DHT22;24676;51.360;12.354;2022-09-09T05:50:24;15.40;99.90
38910;DHT22;24676;51.360;12.354;2022-09-09T05:53:09;15.50;99.90
38910;DHT22;24676;51.360;12.354;2022-09-09T05:56:04;15.60;99.90
38910;DHT22;24676;51.360;12.354;2022-09-09T05:58:49;15.70;99.90
38910;DHT22;24676;51.360;12.354;2022-09-09T06:01:35;15.80;99.90
38910;DHT22;24676;51.360;12.354;2022-09-09T06:04:19;15.90;99.90
38910;DHT22;24676;51.360;12.354;2022-09-09T06:07:08;16.10;99.90
38910;DHT22;24676;51.360;12.354;2022-09-09T06:09:51;16.20;99.90
38910;DHT22;24676;51.360;12.354;2022-09-09T06:12:36;16.40;99.90
38910;DHT22;24676;51.360;12.354;2022-09-09T06:15:21;16.50;99.90
38910;DHT22;24676;51.360;12.354;2022-09-09T06:18:05;16.60;99.90
38910;DHT22;24676;51.360;12.354;2022-09-09T06:21:00;16.70;99.90
38910;DHT22;24676;51.360;12.354;2022-09-09T06:23:45;16.80;99.90
38910;DHT22;24676;51.360;12.354;2022-09-09T06:26:34;16.80;99.90
38910;DHT22;24676;51.360;12.354;2022-09-09T06:29:19;16.80;99.90
38910;DHT22;24676;51.360;12.354;2022-09-09T06:32:03;16.80;99.90
38910;DHT22;24676;51.360;12.354;2022-09-09T06:34:48;16.80;99.90
38910;DHT22;24676;51.360;12.354;2022-09-09T06:37:33;16.90;99.90
38910;DHT22;24676;51.360;12.354;2022-09-09T06:40:17;17.00;99.90
38910;DHT22;24676;51.360;12.354;2022-09-09T06:43:02;17.10;99.90
38910;DHT22;24676;51.360;12.354;2022-09-09T06:45:57;17.20;99.90
38910;DHT22;24676;51.360;12.354;2022-09-09T06:48:43;17.20;99.90
38910;DHT22;24676;51.360;12.354;2022-09-09T06:51:34;17.30;99.90
38910;DHT22;24676;51.360;12.354;2022-09-09T06:54:18;17.30;99.90
38910;DHT22;24676;51.360;12.354;2022-09-09T06:57:03;17.40;99.90
38910;DHT22;24676;51.360;12.354;2022-09-09T06:59:48;17.50;99.90
38910;DHT22;24676;51.360;12.354;2022-09-09T07:02:32;17.60;99.90
38910;DHT22;24676;51.360;12.354;2022-09-09T07:05:16;17.80;99.90
38910;DHT22;24676;51.360;12.354;2022-09-09T07:08:00;18.30;99.90
38910;DHT22;24676;51.360;12.354;2022-09-09T07:10:45;20.40;99.90
38910;DHT22;24676;51.360;12.354;2022-09-09T07:13:31;22.40;99.90
38910;DHT22;24676;51.360;12.354;2022-09-09T07:16:17;22.90;94.10
38910;DHT22;24676;51.360;12.354;2022-09-09T07:19:02;23.90;87.90
38910;DHT22;24676;51.360;12.354;2022-09-09T07:21:46;26.60;67.90
38910;DHT22;24676;51.360;12.354;2022-09-09T07:24:30;29.30;55.10
38910;DHT22;24676;51.360;12.354;2022-09-09T07:27:14;31.70;47.90
38910;DHT22;24676;51.360;12.354;2022-09-09T07:29:58;32.70;42.80
38910;DHT22;24676;51.360;12.354;2022-09-09T07:32:43;33.90;41.10
38910;DHT22;24676;51.360;12.354;2022-09-09T07:35:27;35.60;37.50
38910;DHT22;24676;51.360;12.354;2022-09-09T07:38:11;36.50;34.40
38910;DHT22;24676;51.360;12.354;2022-09-09T07:41:03;36.50;33.70
38910;DHT22;24676;51.360;12.354;2022-09-09T07:43:48;36.40;34.40
38910;DHT22;24676;51.360;12.354;2022-09-09T07:46:32;36.30;33.40
38910;DHT22;24676;51.360;12.354;2022-09-09T07:49:16;34.80;34.10
38910;DHT22;24676;51.360;12.354;2022-09-09T07:52:02;32.70;38.00
38910;DHT22;24676;51.360;12.354;2022-09-09T07:54:47;32.00;39.10
38910;DHT22;24676;51.360;12.354;2022-09-09T07:57:31;33.00;39.10
38910;DHT22;24676;51.360;12.354;2022-09-09T08:00:15;32.80;39.50
38910;DHT22;24676;51.360;12.354;2022-09-09T08:02:59;32.10;39.80
38910;DHT22;24676;51.360;12.354;2022-09-09T08:05:46;30.60;40.10
38910;DHT22;24676;51.360;12.354;2022-09-09T08:08:30;28.90;44.70
38910;DHT22;24676;51.360;12.354;2022-09-09T08:11:15;28.30;46.40
38910;DHT22;24676;51.360;12.354;2022-09-09T08:13:59;28.10;49.40
38910;DHT22;24676;51.360;12.354;2022-09-09T08:16:45;27.70;49.40
38910;DHT22;24676;51.360;12.354;2022-09-09T08:19:30;27.90;49.10
38910;DHT22;24676;51.360;12.354;2022-09-09T08:22:16;28.30;49.30
38910;DHT22;24676;51.360;12.354;2022-09-09T08:25:00;27.20;49.50
38910;DHT22;24676;51.360;12.354;2022-09-09T08:27:46;26.40;51.70
38910;DHT22;24676;51.360;12.354;2022-09-09T08:30:30;25.30;53.40
38910;DHT22;24676;51.360;12.354;2022-09-09T08:33:14;24.20;57.30
38910;DHT22;24676;51.360;12.354;2022-09-09T08:35:59;24.10;58.40
38910;DHT22;24676;51.360;12.354;2022-09-09T08:38:43;24.60;58.30
38910;DHT22;24676;51.360;12.354;2022-09-09T08:41:56;24.90;56.50
38910;DHT22;24676;51.360;12.354;2022-09-09T08:48:23;25.50;57.10
38910;DHT22;24676;51.360;12.354;2022-09-09T08:51:13;26.10;57.90
38910;DHT22;24676;51.360;12.354;2022-09-09T08:53:58;26.40;56.50
38910;DHT22;24676;51.360;12.354;2022-09-09T08:56:44;26.40;54.90
38910;DHT22;24676;51.360;12.354;2022-09-09T08:59:28;26.30;56.30
38910;DHT22;24676;51.360;12.354;2022-09-09T09:02:22;25.90;56.50
38910;DHT22;24676;51.360;12.354;2022-09-09T09:11:25;26.10;56.60
38910;DHT22;24676;51.360;12.354;2022-09-09T09:14:23;26.20;56.60
38910;DHT22;24676;51.360;12.354;2022-09-09T09:17:19;26.20;56.00
38910;DHT22;24676;51.360;12.354;2022-09-09T09:20:05;26.10;54.80
38910;DHT22;24676;51.360;12.354;2022-09-09T09:22:52;26.10;56.20
38910;DHT22;24676;51.360;12.354;2022-09-09T09:25:39;26.40;54.40
38910;DHT22;24676;51.360;12.354;2022-09-09T09:28:26;26.70;52.80
38910;DHT22;24676;51.360;12.354;2022-09-09T09:31:11;27.00;53.40
38910;DHT22;24676;51.360;12.354;2022-09-09T09:33:56;27.30;52.00
38910;DHT22;24676;51.360;12.354;2022-09-09T09:36:52;27.90;50.80
38910;DHT22;24676;51.360;12.354;2022-09-09T09:39:37;28.50;50.20
38910;DHT22;24676;51.360;12.354;2022-09-09T09:42:23;28.50;47.40
38910;DHT22;24676;51.360;12.354;2022-09-09T09:45:17;27.90;49.50
38910;DHT22;24676;51.360;12.354;2022-09-09T09:48:05;27.80;52.00
38910;DHT22;24676;51.360;12.354;2022-09-09T09:53:40;27.40;51.70
38910;DHT22;24676;51.360;12.354;2022-09-09T09:56:28;27.10;51.80
38910;DHT22;24676;51.360;12.354;2022-09-09T09:59:38;27.50;52.50
38910;DHT22;24676;51.360;12.354;2022-09-09T10:02:25;27.70;53.10
38910;DHT22;24676;51.360;12.354;2022-09-09T10:05:16;27.40;52.70
38910;DHT22;24676;51.360;12.354;2022-09-09T10:08:02;26.90;52.70
38910;DHT22;24676;51.360;12.354;2022-09-09T10:10:49;27.20;53.10
38910;DHT22;24676;51.360;12.354;2022-09-09T10:23:04;30.00;46.40
38910;DHT22;24676;51.360;12.354;2022-09-09T10:31:31;28.70;49.70
38910;DHT22;24676;51.360;12.354;2022-09-09T10:37:47;28.40;51.20
38910;DHT22;24676;51.360;12.354;2022-09-09T10:55:28;26.80;52.20
38910;DHT22;24676;51.360;12.354;2022-09-09T10:58:19;27.30;51.90
38910;DHT22;24676;51.360;12.354;2022-09-09T11:01:12;28.30;50.10
38910;DHT22;24676;51.360;12.354;2022-09-09T11:04:43;29.50;49.80
38910;DHT22;24676;51.360;12.354;2022-09-09T11:07:08;30.20;47.50
38910;DHT22;24676;51.360;12.354;2022-09-09T11:09:54;29.90;45.20
38910;DHT22;24676;51.360;12.354;2022-09-09T11:12:42;29.00;46.00
38910;DHT22;24676;51.360;12.354;2022-09-09T11:15:35;28.30;47.30
38910;DHT22;24676;51.360;12.354;2022-09-09T11:18:20;28.00;48.70
38910;DHT22;24676;51.360;12.354;2022-09-09T11:21:10;27.70;48.70
38910;DHT22;24676;51.360;12.354;2022-09-09T11:23:57;27.40;50.60
38910;DHT22;24676;51.360;12.354;2022-09-09T11:27:08;27.30;50.30
38910;DHT22;24676;51.360;12.354;2022-09-09T11:30:14;27.50;49.50
38910;DHT22;24676;51.360;12.354;2022-09-09T11:41:32;32.90;42.20
38910;DHT22;24676;51.360;12.354;2022-09-09T11:44:29;33.60;39.70
38910;DHT22;24676;51.360;12.354;2022-09-09T11:47:28;33.70;38.00
38910;DHT22;24676;51.360;12.354;2022-09-09T11:53:19;33.30;39.30
38910;DHT22;24676;51.360;12.354;2022-09-09T11:56:08;33.20;38.10
38910;DHT22;24676;51.360;12.354;2022-09-09T11:59:03;33.80;37.70
38910;DHT22;24676;51.360;12.354;2022-09-09T12:02:03;34.20;36.90
38910;DHT22;24676;51.360;12.354;2022-09-09T12:07:40;33.50;36.70
38910;DHT22;24676;51.360;12.354;2022-09-09T12:10:27;32.00;37.80
38910;DHT22;24676;51.360;12.354;2022-09-09T12:16:03;29.90;42.70
38910;DHT22;24676;51.360;12.354;2022-09-09T12:18:49;29.30;45.00
38910;DHT22;24676;51.360;12.354;2022-09-09T12:21:39;29.90;45.00
38910;DHT22;24676;51.360;12.354;2022-09-09T12:24:44;31.30;42.80
38910;DHT22;24676;51.360;12.354;2022-09-09T12:27:37;31.50;40.30
38910;DHT22;24676;51.360;12.354;2022-09-09T12:30:24;30.60;41.10
38910;DHT22;24676;51.360;12.354;2022-09-09T12:33:17;29.50;43.90
38910;DHT22;24676;51.360;12.354;2022-09-09T12:36:03;28.20;45.30
38910;DHT22;24676;51.360;12.354;2022-09-09T12:38:48;27.50;47.00
38910;DHT22;24676;51.360;12.354;2022-09-09T12:41:34;27.30;48.50
38910;DHT22;24676;51.360;12.354;2022-09-09T12:44:18;27.10;49.00
38910;DHT22;24676;51.360;12.354;2022-09-09T12:47:02;27.00;48.40
38910;DHT22;24676;51.360;12.354;2022-09-09T12:49:47;26.90;47.40
38910;DHT22;24676;51.360;12.354;2022-09-09T12:52:35;26.70;48.40
38910;DHT22;24676;51.360;12.354;2022-09-09T12:55:48;26.50;49.70
38910;DHT22;24676;51.360;12.354;2022-09-09T12:58:24;26.40;49.30
38910;DHT22;24676;51.360;12.354;2022-09-09T13:01:17;26.20;49.50
38910;DHT22;24676;51.360;12.354;2022-09-09T13:04:02;26.30;48.30
38910;DHT22;24676;51.360;12.354;2022-09-09T13:06:46;26.20;49.50
38910;DHT22;24676;51.360;12.354;2022-09-09T13:09:31;25.90;49.20
38910;DHT22;24676;51.360;12.354;2022-09-09T13:12:19;25.70;50.30
38910;DHT22;24676;51.360;12.354;2022-09-09T13:15:04;25.80;51.20
38910;DHT22;24676;51.360;12.354;2022-09-09T13:17:54;25.70;51.40
38910;DHT22;24676;51.360;12.354;2022-09-09T13:20:39;25.60;51.80
38910;DHT22;24676;51.360;12.354;2022-09-09T13:23:30;25.40;50.50
38910;DHT22;24676;51.360;12.354;2022-09-09T13:26:26;25.10;51.30
38910;DHT22;24676;51.360;12.354;2022-09-09T13:29:17;24.80;53.30
38910;DHT22;24676;51.360;12.354;2022-09-09T13:32:20;24.40;53.00
38910;DHT22;24676;51.360;12.354;2022-09-09T13:35:04;24.10;52.20
38910;DHT22;24676;51.360;12.354;2022-09-09T13:37:50;24.00;53.40
38910;DHT22;24676;51.360;12.354;2022-09-09T13:40:34;23.90;54.80
38910;DHT22;24676;51.360;12.354;2022-09-09T13:43:20;23.80;55.50
38910;DHT22;24676;51.360;12.354;2022-09-09T13:46:21;23.90;56.10
38910;DHT22;24676;51.360;12.354;2022-09-09T13:52:03;23.60;56.30
38910;DHT22;24676;51.360;12.354;2022-09-09T13:54:47;23.60;57.50
38910;DHT22;24676;51.360;12.354;2022-09-09T13:57:32;23.50;57.60
38910;DHT22;24676;51.360;12.354;2022-09-09T14:00:16;23.40;58.30
38910;DHT22;24676;51.360;12.354;2022-09-09T14:03:00;23.30;58.90
38910;DHT22;24676;51.360;12.354;2022-09-09T14:05:46;23.20;60.70
38910;DHT22;24676;51.360;12.354;2022-09-09T14:08:30;23.10;58.50
38910;DHT22;24676;51.360;12.354;2022-09-09T14:11:20;22.80;56.00
38910;DHT22;24676;51.360;12.354;2022-09-09T14:14:05;22.70;53.60
38910;DHT22;24676;51.360;12.354;2022-09-09T14:16:49;22.50;53.60
38910;DHT22;24676;51.360;12.354;2022-09-09T14:19:33;22.40;53.40
38910;DHT22;24676;51.360;12.354;2022-09-09T14:22:17;22.20;54.30
38910;DHT22;24676;51.360;12.354;2022-09-09T14:25:02;22.20;53.60
38910;DHT22;24676;51.360;12.354;2022-09-09T14:27:46;22.10;53.80
38910;DHT22;24676;51.360;12.354;2022-09-09T14:30:30;22.10;54.00
38910;DHT22;24676;51.360;12.354;2022-09-09T14:33:15;22.10;54.90
38910;DHT22;24676;51.360;12.354;2022-09-09T14:36:01;22.20;54.70
38910;DHT22;24676;51.360;12.354;2022-09-09T14:38:45;22.30;54.30
38910;DHT22;24676;51.360;12.354;2022-09-09T14:41:30;22.40;54.30
38910;DHT22;24676;51.360;12.354;2022-09-09T14:44:14;22.40;54.70
38910;DHT22;24676;51.360;12.354;2022-09-09T14:46:59;22.60;54.80
38910;DHT22;24676;51.360;12.354;2022-09-09T14:49:44;22.60;55.60
38910;DHT22;24676;51.360;12.354;2022-09-09T14:52:29;22.60;55.60
38910;DHT22;24676;51.360;12.354;2022-09-09T14:55:17;22.70;55.30
38910;DHT22;24676;51.360;12.354;2022-09-09T14:58:05;22.60;54.60
38910;DHT22;24676;51.360;12.354;2022-09-09T15:00:50;22.70;55.20
38910;DHT22;24676;51.360;12.354;2022-09-09T15:03:34;22.70;56.20
38910;DHT22;24676;51.360;12.354;2022-09-09T15:06:18;22.90;55.20
38910;DHT22;24676;51.360;12.354;2022-09-09T15:09:03;23.20;54.40
38910;DHT22;24676;51.360;12.354;2022-09-09T15:11:47;23.40;54.30
38910;DHT22;24676;51.360;12.354;2022-09-09T15:14:31;23.60;54.90
38910;DHT22;24676;51.360;12.354;2022-09-09T15:17:15;23.60;54.60
38910;DHT22;24676;51.360;12.354;2022-09-09T15:20:00;23.50;54.80
38910;DHT22;24676;51.360;12.354;2022-09-09T15:22:44;23.30;55.30
38910;DHT22;24676;51.360;12.354;2022-09-09T15:25:28;23.20;55.50
38910;DHT22;24676;51.360;12.354;2022-09-09T15:28:13;23.10;55.40
38910;DHT22;24676;51.360;12.354;2022-09-09T15:30:57;23.00;55.90
38910;DHT22;24676;51.360;12.354;2022-09-09T15:33:42;23.00;56.20
38910;DHT22;24676;51.360;12.354;2022-09-09T15:36:31;22.90;56.60
38910;DHT22;24676;51.360;12.354;2022-09-09T15:39:18;22.90;57.30
38910;DHT22;24676;51.360;12.354;2022-09-09T15:42:03;22.80;55.80
38910;DHT22;24676;51.360;12.354;2022-09-09T15:44:47;22.80;56.60
38910;DHT22;24676;51.360;12.354;2022-09-09T15:47:31;22.80;55.90
38910;DHT22;24676;51.360;12.354;2022-09-09T15:50:17;22.70;55.80
38910;DHT22;24676;51.360;12.354;2022-09-09T15:53:01;22.70;55.30
38910;DHT22;24676;51.360;12.354;2022-09-09T15:55:45;22.60;56.30
38910;DHT22;24676;51.360;12.354;2022-09-09T15:58:30;22.50;56.90
38910;DHT22;24676;51.360;12.354;2022-09-09T16:01:15;22.50;56.60
38910;DHT22;24676;51.360;12.354;2022-09-09T16:04:01;22.40;56.80
38910;DHT22;24676;51.360;12.354;2022-09-09T16:06:45;22.30;57.00
38910;DHT22;24676;51.360;12.354;2022-09-09T16:09:33;22.20;57.20
38910;DHT22;24676;51.360;12.354;2022-09-09T16:12:18;22.10;57.70
38910;DHT22;24676;51.360;12.354;2022-09-09T16:15:03;22.10;57.80
38910;DHT22;24676;51.360;12.354;2022-09-09T16:17:47;22.00;58.40
38910;DHT22;24676;51.360;12.354;2022-09-09T16:20:32;22.00;58.80
38910;DHT22;24676;51.360;12.354;2022-09-09T16:23:17;22.00;58.60
38910;DHT22;24676;51.360;12.354;2022-09-09T16:26:01;21.90;58.60
38910;DHT22;24676;51.360;12.354;2022-09-09T16:28:46;21.90;58.80
38910;DHT22;24676;51.360;12.354;2022-09-09T16:31:31;21.80;58.90
38910;DHT22;24676;51.360;12.354;2022-09-09T16:34:18;21.70;59.10
38910;DHT22;24676;51.360;12.354;2022-09-09T16:37:02;21.60;60.10
38910;DHT22;24676;51.360;12.354;2022-09-09T16:39:47;21.50;60.50
38910;DHT22;24676;51.360;12.354;2022-09-09T16:42:31;21.40;61.90
38910;DHT22;24676;51.360;12.354;2022-09-09T16:45:16;21.30;62.40
38910;DHT22;24676;51.360;12.354;2022-09-09T16:48:00;21.10;63.00
38910;DHT22;24676;51.360;12.354;2022-09-09T16:50:45;21.00;64.20
38910;DHT22;24676;51.360;12.354;2022-09-09T16:53:29;20.90;64.40
38910;DHT22;24676;51.360;12.354;2022-09-09T16:56:15;20.80;65.30
38910;DHT22;24676;51.360;12.354;2022-09-09T16:59:00;20.70;65.30
38910;DHT22;24676;51.360;12.354;2022-09-09T17:01:46;20.60;67.00
38910;DHT22;24676;51.360;12.354;2022-09-09T17:04:30;20.50;67.40
38910;DHT22;24676;51.360;12.354;2022-09-09T17:07:14;20.40;69.00
38910;DHT22;24676;51.360;12.354;2022-09-09T17:09:59;20.30;69.00
38910;DHT22;24676;51.360;12.354;2022-09-09T17:12:43;20.20;70.50
38910;DHT22;24676;51.360;12.354;2022-09-09T17:15:27;20.20;70.80
38910;DHT22;24676;51.360;12.354;2022-09-09T17:18:12;20.10;71.00
38910;DHT22;24676;51.360;12.354;2022-09-09T17:21:01;20.00;71.90
38910;DHT22;24676;51.360;12.354;2022-09-09T17:23:46;19.90;73.00
38910;DHT22;24676;51.360;12.354;2022-09-09T17:26:31;19.80;75.00
38910;DHT22;24676;51.360;12.354;2022-09-09T17:29:16;19.70;77.50
38910;DHT22;24676;51.360;12.354;2022-09-09T17:32:01;19.60;81.70
38910;DHT22;24676;51.360;12.354;2022-09-09T17:34:45;19.60;83.50
38910;DHT22;24676;51.360;12.354;2022-09-09T17:37:29;19.50;82.30
38910;DHT22;24676;51.360;12.354;2022-09-09T17:40:14;19.40;82.40
38910;DHT22;24676;51.360;12.354;2022-09-09T17:42:58;19.30;80.10
38910;DHT22;24676;51.360;12.354;2022-09-09T17:45:43;19.30;79.40
38910;DHT22;24676;51.360;12.354;2022-09-09T17:48:30;19.20;79.80
38910;DHT22;24676;51.360;12.354;2022-09-09T17:51:15;19.10;80.50
38910;DHT22;24676;51.360;12.354;2022-09-09T17:54:00;19.00;82.00
38910;DHT22;24676;51.360;12.354;2022-09-09T17:56:45;18.80;83.30
38910;DHT22;24676;51.360;12.354;2022-09-09T17:59:30;18.80;82.80
38910;DHT22;24676;51.360;12.354;2022-09-09T18:02:15;18.70;83.90
38910;DHT22;24676;51.360;12.354;2022-09-09T18:04:59;18.60;84.20
38910;DHT22;24676;51.360;12.354;2022-09-09T18:07:45;18.60;84.10
38910;DHT22;24676;51.360;12.354;2022-09-09T18:10:29;18.50;85.00
38910;DHT22;24676;51.360;12.354;2022-09-09T18:13:14;18.50;85.00
38910;DHT22;24676;51.360;12.354;2022-09-09T18:15:59;18.40;87.20
38910;DHT22;24676;51.360;12.354;2022-09-09T18:18:47;18.30;87.20
38910;DHT22;24676;51.360;12.354;2022-09-09T18:21:33;18.20;88.80
38910;DHT22;24676;51.360;12.354;2022-09-09T18:24:18;18.10;90.30
38910;DHT22;24676;51.360;12.354;2022-09-09T18:27:02;18.10;92.00
38910;DHT22;24676;51.360;12.354;2022-09-09T18:29:47;18.00;93.60
38910;DHT22;24676;51.360;12.354;2022-09-09T18:32:31;17.90;95.50
38910;DHT22;24676;51.360;12.354;2022-09-09T18:35:17;17.80;98.70
38910;DHT22;24676;51.360;12.354;2022-09-09T18:38:01;17.80;99.90
38910;DHT22;24676;51.360;12.354;2022-09-09T18:40:45;17.70;99.90
38910;DHT22;24676;51.360;12.354;2022-09-09T18:43:29;17.70;99.90
38910;DHT22;24676;51.360;12.354;2022-09-09T18:46:13;17.60;99.90
38910;DHT22;24676;51.360;12.354;2022-09-09T18:49:01;17.50;99.90
38910;DHT22;24676;51.360;12.354;2022-09-09T18:51:45;17.50;99.90
38910;DHT22;24676;51.360;12.354;2022-09-09T18:54:30;17.40;99.90
38910;DHT22;24676;51.360;12.354;2022-09-09T18:57:17;17.40;99.90
38910;DHT22;24676;51.360;12.354;2022-09-09T19:00:02;17.30;99.90
38910;DHT22;24676;51.360;12.354;2022-09-09T19:02:48;17.30;99.90
38910;DHT22;24676;51.360;12.354;2022-09-09T19:05:35;17.20;99.90
38910;DHT22;24676;51.360;12.354;2022-09-09T19:08:20;17.20;99.90
38910;DHT22;24676;51.360;12.354;2022-09-09T19:11:09;17.10;99.90
38910;DHT22;24676;51.360;12.354;2022-09-09T19:13:55;17.10;99.90
38910;DHT22;24676;51.360;12.354;2022-09-09T19:16:40;17.10;99.90
38910;DHT22;24676;51.360;12.354;2022-09-09T19:19:29;17.00;99.90
38910;DHT22;24676;51.360;12.354;2022-09-09T19:22:13;17.00;99.90
38910;DHT22;24676;51.360;12.354;2022-09-09T19:24:58;16.90;99.90
38910;DHT22;24676;51.360;12.354;2022-09-09T19:27:43;16.90;99.90
38910;DHT22;24676;51.360;12.354;2022-09-09T19:30:27;17.00;99.90
38910;DHT22;24676;51.360;12.354;2022-09-09T19:33:12;17.00;99.90
38910;DHT22;24676;51.360;12.354;2022-09-09T19:35:57;17.00;99.90
38910;DHT22;24676;51.360;12.354;2022-09-09T19:38:42;17.00;99.90
38910;DHT22;24676;51.360;12.354;2022-09-09T19:41:27;17.10;99.90
38910;DHT22;24676;51.360;12.354;2022-09-09T19:44:13;17.00;99.90
38910;DHT22;24676;51.360;12.354;2022-09-09T19:46:58;17.00;99.90
38910;DHT22;24676;51.360;12.354;2022-09-09T19:49:44;16.90;99.90
38910;DHT22;24676;51.360;12.354;2022-09-09T19:52:28;16.90;99.90
38910;DHT22;24676;51.360;12.354;2022-09-09T19:55:14;16.90;99.90
38910;DHT22;24676;51.360;12.354;2022-09-09T19:57:58;16.90;99.90
38910;DHT22;24676;51.360;12.354;2022-09-09T20:00:48;16.80;99.90
38910;DHT22;24676;51.360;12.354;2022-09-09T20:03:33;16.80;99.90
38910;DHT22;24676;51.360;12.354;2022-09-09T20:06:20;16.80;99.90
38910;DHT22;24676;51.360;12.354;2022-09-09T20:09:06;16.70;99.90
38910;DHT22;24676;51.360;12.354;2022-09-09T20:11:51;16.70;99.90
38910;DHT22;24676;51.360;12.354;2022-09-09T20:14:36;16.70;99.90
38910;DHT22;24676;51.360;12.354;2022-09-09T20:17:20;16.70;99.90
38910;DHT22;24676;51.360;12.354;2022-09-09T20:20:05;16.60;99.90
38910;DHT22;24676;51.360;12.354;2022-09-09T20:22:49;16.60;99.90
38910;DHT22;24676;51.360;12.354;2022-09-09T20:25:37;16.60;99.90
38910;DHT22;24676;51.360;12.354;2022-09-09T20:28:22;16.60;99.90
38910;DHT22;24676;51.360;12.354;2022-09-09T20:31:10;16.60;99.90
38910;DHT22;24676;51.360;12.354;2022-09-09T20:33:55;16.60;99.90
38910;DHT22;24676;51.360;12.354;2022-09-09T20:36:40;16.60;99.90
38910;DHT22;24676;51.360;12.354;2022-09-09T20:39:25;16.50;99.90
38910;DHT22;24676;51.360;12.354;2022-09-09T20:42:10;16.60;99.90
38910;DHT22;24676;51.360;12.354;2022-09-09T20:44:55;16.60;99.90
38910;DHT22;24676;51.360;12.354;2022-09-09T20:47:40;16.60;99.90
38910;DHT22;24676;51.360;12.354;2022-09-09T20:50:24;16.50;99.90
38910;DHT22;24676;51.360;12.354;2022-09-09T20:53:08;16.50;99.90
38910;DHT22;24676;51.360;12.354;2022-09-09T20:56:00;16.40;99.90
38910;DHT22;24676;51.360;12.354;2022-09-09T20:58:45;16.40;99.90
38910;DHT22;24676;51.360;12.354;2022-09-09T21:25:47;16.20;99.90
38910;DHT22;24676;51.360;12.354;2022-09-09T21:28:31;16.10;99.90
38910;DHT22;24676;51.360;12.354;2022-09-09T21:31:17;16.10;99.90
38910;DHT22;24676;51.360;12.354;2022-09-09T21:34:02;16.00;99.90
38910;DHT22;24676;51.360;12.354;2022-09-09T21:36:47;15.90;99.90
38910;DHT22;24676;51.360;12.354;2022-09-09T21:39:32;15.90;99.90
38910;DHT22;24676;51.360;12.354;2022-09-09T21:42:16;15.80;99.90
38910;DHT22;24676;51.360;12.354;2022-09-09T21:45:01;15.70;99.90
38910;DHT22;24676;51.360;12.354;2022-09-09T21:47:45;15.70;99.90
38910;DHT22;24676;51.360;12.354;2022-09-09T21:50:29;15.60;99.90
38910;DHT22;24676;51.360;12.354;2022-09-09T21:53:15;15.60;99.90
38910;DHT22;24676;51.360;12.354;2022-09-09T21:56:06;15.50;99.90
38910;DHT22;24676;51.360;12.354;2022-09-09T21:58:58;15.50;99.90
38910;DHT22;24676;51.360;12.354;2022-09-09T22:01:46;15.40;99.90
38910;DHT22;24676;51.360;12.354;2022-09-09T22:04:31;15.40;99.90
38910;DHT22;24676;51.360;12.354;2022-09-09T22:07:15;15.30;99.90
38910;DHT22;24676;51.360;12.354;2022-09-09T22:10:00;15.30;99.90
38910;DHT22;24676;51.360;12.354;2022-09-09T22:12:44;15.20;99.90
38910;DHT22;24676;51.360;12.354;2022-09-09T22:15:28;15.20;99.90
38910;DHT22;24676;51.360;12.354;2022-09-09T22:18:15;15.20;99.90
38910;DHT22;24676;51.360;12.354;2022-09-09T22:21:11;15.20;99.90
38910;DHT22;24676;51.360;12.354;2022-09-09T22:23:58;15.20;99.90
38910;DHT22;24676;51.360;12.354;2022-09-09T22:26:42;15.10;99.90
38910;DHT22;24676;51.360;12.354;2022-09-09T22:29:26;15.10;99.90
38910;DHT22;24676;51.360;12.354;2022-09-09T22:32:10;15.10;99.90
38910;DHT22;24676;51.360;12.354;2022-09-09T22:34:54;15.10;99.90
38910;DHT22;24676;51.360;12.354;2022-09-09T22:37:39;15.00;99.90
38910;DHT22;24676;51.360;12.354;2022-09-09T22:40:23;15.10;99.90
38910;DHT22;24676;51.360;12.354;2022-09-09T22:43:16;15.10;99.90
38910;DHT22;24676;51.360;12.354;2022-09-09T22:46:01;15.10;99.90